sensor_id;sensor_type;location;lat;lon;timestamp;P1;durP1;ratioP1;P2;durP2;ratioP2
10154;SDS011;5118;48.570;7.916;2022-10-01T00:02:13;6.73;;;6.00;;
10154;SDS011;5118;48.570;7.916;2022-10-01T00:04:42;6.70;;;6.10;;
10154;SDS011;5118;48.570;7.916;2022-10-01T00:07:11;6.67;;;6.07;;
10154;SDS011;5118;48.570;7.916;2022-10-01T00:09:41;6.43;;;5.83;;
10154;SDS011;5118;48.570;7.916;2022-10-01T00:12:09;6.10;;;5.60;;
10154;SDS011;5118;48.570;7.916;2022-10-01T00:14:42;6.67;;;6.00;;
10154;SDS011;5118;48.570;7.916;2022-10-01T00:17:11;6.97;;;5.67;;
10154;SDS011;5118;48.570;7.916;2022-10-01T00:19:39;6.17;;;5.57;;
10154;SDS011;5118;48.570;7.916;2022-10-01T00:22:10;9.67;;;5.90;;
10154;SDS011;5118;48.570;7.916;2022-10-01T00:24:39;6.10;;;5.60;;
10154;SDS011;5118;48.570;7.916;2022-10-01T00:27:07;6.57;;;5.73;;
10154;SDS011;5118;48.570;7.916;2022-10-01T00:29:36;5.97;;;5.43;;
10154;SDS011;5118;48.570;7.916;2022-10-01T00:32:06;7.53;;;5.73;;
10154;SDS011;5118;48.570;7.916;2022-10-01T00:34:35;6.70;;;6.00;;
10154;SDS011;5118;48.570;7.916;2022-10-01T00:37:03;6.07;;;5.47;;
10154;SDS011;5118;48.570;7.916;2022-10-01T00:39:32;6.97;;;6.00;;
10154;SDS011;5118;48.570;7.916;2022-10-01T00:42:00;6.30;;;5.70;;
10154;SDS011;5118;48.570;7.916;2022-10-01T00:44:30;6.17;;;5.30;;
10154;SDS011;5118;48.570;7.916;2022-10-01T00:47:02;6.10;;;5.40;;
10154;SDS011;5118;48.570;7.916;2022-10-01T00:49:37;7.80;;;5.20;;
10154;SDS011;5118;48.570;7.916;2022-10-01T00:52:08;6.10;;;5.50;;
10154;SDS011;5118;48.570;7.916;2022-10-01T00:54:42;6.37;;;5.00;;
10154;SDS011;5118;48.570;7.916;2022-10-01T00:57:13;5.87;;;5.23;;
10154;SDS011;5118;48.570;7.916;2022-10-01T00:59:45;5.37;;;4.87;;
10154;SDS011;5118;48.570;7.916;2022-10-01T01:02:14;5.17;;;4.77;;
10154;SDS011;5118;48.570;7.916;2022-10-01T01:04:44;5.70;;;5.20;;
10154;SDS011;5118;48.570;7.916;2022-10-01T01:07:12;5.70;;;4.93;;
10154;SDS011;5118;48.570;7.916;2022-10-01T01:09:42;5.60;;;5.00;;
10154;SDS011;5118;48.570;7.916;2022-10-01T01:12:16;5.70;;;5.13;;
10154;SDS011;5118;48.570;7.916;2022-10-01T01:15:04;5.63;;;4.93;;
10154;SDS011;5118;48.570;7.916;2022-10-01T01:17:41;5.53;;;4.80;;
10154;SDS011;5118;48.570;7.916;2022-10-01T01:20:21;6.83;;;5.00;;
10154;SDS011;5118;48.570;7.916;2022-10-01T01:23:04;6.67;;;4.77;;
10154;SDS011;5118;48.570;7.916;2022-10-01T01:25:47;5.67;;;4.60;;
10154;SDS011;5118;48.570;7.916;2022-10-01T01:28:24;5.60;;;4.23;;
10154;SDS011;5118;48.570;7.916;2022-10-01T01:30:58;6.00;;;4.70;;
10154;SDS011;5118;48.570;7.916;2022-10-01T01:33:32;5.23;;;4.73;;
10154;SDS011;5118;48.570;7.916;2022-10-01T01:36:04;5.30;;;4.80;;
10154;SDS011;5118;48.570;7.916;2022-10-01T01:38:37;6.07;;;4.50;;
10154;SDS011;5118;48.570;7.916;2022-10-01T01:41:09;5.07;;;4.63;;
10154;SDS011;5118;48.570;7.916;2022-10-01T01:43:41;5.03;;;4.63;;
10154;SDS011;5118;48.570;7.916;2022-10-01T01:46:12;5.27;;;4.77;;
10154;SDS011;5118;48.570;7.916;2022-10-01T01:48:43;6.40;;;4.70;;
10154;SDS011;5118;48.570;7.916;2022-10-01T01:51:16;5.33;;;4.83;;
10154;SDS011;5118;48.570;7.916;2022-10-01T01:53:49;4.80;;;4.40;;
10154;SDS011;5118;48.570;7.916;2022-10-01T01:56:17;5.20;;;4.70;;
10154;SDS011;5118;48.570;7.916;2022-10-01T01:58:47;4.97;;;4.33;;
10154;SDS011;5118;48.570;7.916;2022-10-01T02:01:31;7.03;;;5.20;;
10154;SDS011;5118;48.570;7.916;2022-10-01T02:04:02;4.87;;;4.37;;
10154;SDS011;5118;48.570;7.916;2022-10-01T02:06:34;4.90;;;4.40;;
10154;SDS011;5118;48.570;7.916;2022-10-01T02:09:18;4.93;;;4.40;;
10154;SDS011;5118;48.570;7.916;2022-10-01T02:11:57;4.37;;;4.00;;
10154;SDS011;5118;48.570;7.916;2022-10-01T02:14:36;4.93;;;4.10;;
10154;SDS011;5118;48.570;7.916;2022-10-01T02:17:12;4.70;;;4.30;;
10154;SDS011;5118;48.570;7.916;2022-10-01T02:19:46;4.50;;;4.10;;
10154;SDS011;5118;48.570;7.916;2022-10-01T02:22:22;4.33;;;3.93;;
10154;SDS011;5118;48.570;7.916;2022-10-01T02:24:59;7.57;;;3.80;;
10154;SDS011;5118;48.570;7.916;2022-10-01T02:27:30;4.00;;;3.60;;
10154;SDS011;5118;48.570;7.916;2022-10-01T02:30:07;5.00;;;3.50;;
10154;SDS011;5118;48.570;7.916;2022-10-01T02:32:38;4.00;;;3.70;;
10154;SDS011;5118;48.570;7.916;2022-10-01T02:35:10;4.90;;;3.47;;
10154;SDS011;5118;48.570;7.916;2022-10-01T02:37:41;3.83;;;3.53;;
10154;SDS011;5118;48.570;7.916;2022-10-01T02:40:12;3.63;;;3.33;;
10154;SDS011;5118;48.570;7.916;2022-10-01T02:42:43;4.57;;;3.50;;
10154;SDS011;5118;48.570;7.916;2022-10-01T02:45:17;4.37;;;3.60;;
10154;SDS011;5118;48.570;7.916;2022-10-01T02:47:50;4.40;;;3.60;;
10154;SDS011;5118;48.570;7.916;2022-10-01T02:50:21;4.67;;;3.37;;
10154;SDS011;5118;48.570;7.916;2022-10-01T02:52:56;3.53;;;3.23;;
10154;SDS011;5118;48.570;7.916;2022-10-01T02:55:29;3.50;;;3.20;;
10154;SDS011;5118;48.570;7.916;2022-10-01T02:58:02;3.40;;;3.10;;
10154;SDS011;5118;48.570;7.916;2022-10-01T03:00:31;3.40;;;3.10;;
10154;SDS011;5118;48.570;7.916;2022-10-01T03:02:59;3.73;;;3.10;;
10154;SDS011;5118;48.570;7.916;2022-10-01T03:05:27;5.03;;;3.13;;
10154;SDS011;5118;48.570;7.916;2022-10-01T03:07:56;3.30;;;3.00;;
10154;SDS011;5118;48.570;7.916;2022-10-01T03:10:24;3.23;;;2.93;;
10154;SDS011;5118;48.570;7.916;2022-10-01T03:12:52;3.40;;;3.10;;
10154;SDS011;5118;48.570;7.916;2022-10-01T03:15:21;4.07;;;2.77;;
10154;SDS011;5118;48.570;7.916;2022-10-01T03:17:51;2.70;;;2.50;;
10154;SDS011;5118;48.570;7.916;2022-10-01T03:20:20;3.00;;;2.80;;
10154;SDS011;5118;48.570;7.916;2022-10-01T03:22:49;3.27;;;2.80;;
10154;SDS011;5118;48.570;7.916;2022-10-01T03:25:17;4.17;;;2.93;;
10154;SDS011;5118;48.570;7.916;2022-10-01T03:27:51;3.40;;;3.10;;
10154;SDS011;5118;48.570;7.916;2022-10-01T03:30:19;4.73;;;3.10;;
10154;SDS011;5118;48.570;7.916;2022-10-01T03:32:47;3.37;;;2.63;;
10154;SDS011;5118;48.570;7.916;2022-10-01T03:35:17;3.30;;;3.00;;
10154;SDS011;5118;48.570;7.916;2022-10-01T03:37:45;2.80;;;2.60;;
10154;SDS011;5118;48.570;7.916;2022-10-01T03:40:14;2.80;;;2.50;;
10154;SDS011;5118;48.570;7.916;2022-10-01T03:42:42;3.33;;;2.70;;
10154;SDS011;5118;48.570;7.916;2022-10-01T03:45:10;2.77;;;2.57;;
10154;SDS011;5118;48.570;7.916;2022-10-01T03:47:39;3.03;;;2.70;;
10154;SDS011;5118;48.570;7.916;2022-10-01T03:50:08;3.17;;;2.50;;
10154;SDS011;5118;48.570;7.916;2022-10-01T03:52:37;3.00;;;2.70;;
10154;SDS011;5118;48.570;7.916;2022-10-01T03:55:08;2.60;;;2.40;;
10154;SDS011;5118;48.570;7.916;2022-10-01T03:57:37;2.97;;;2.67;;
10154;SDS011;5118;48.570;7.916;2022-10-01T04:00:05;2.57;;;2.37;;
10154;SDS011;5118;48.570;7.916;2022-10-01T04:02:36;3.30;;;2.43;;
10154;SDS011;5118;48.570;7.916;2022-10-01T04:05:05;3.40;;;2.80;;
10154;SDS011;5118;48.570;7.916;2022-10-01T04:07:34;2.60;;;2.40;;
10154;SDS011;5118;48.570;7.916;2022-10-01T04:10:04;4.30;;;3.90;;
10154;SDS011;5118;48.570;7.916;2022-10-01T04:12:34;3.33;;;2.67;;
10154;SDS011;5118;48.570;7.916;2022-10-01T04:15:02;2.67;;;2.37;;
10154;SDS011;5118;48.570;7.916;2022-10-01T04:17:31;2.60;;;2.40;;
10154;SDS011;5118;48.570;7.916;2022-10-01T04:19:59;3.00;;;2.60;;
10154;SDS011;5118;48.570;7.916;2022-10-01T04:22:28;3.33;;;2.50;;
10154;SDS011;5118;48.570;7.916;2022-10-01T04:24:56;3.17;;;2.87;;
10154;SDS011;5118;48.570;7.916;2022-10-01T04:27:26;2.83;;;2.60;;
10154;SDS011;5118;48.570;7.916;2022-10-01T04:29:54;2.80;;;2.60;;
10154;SDS011;5118;48.570;7.916;2022-10-01T04:32:22;4.50;;;3.07;;
10154;SDS011;5118;48.570;7.916;2022-10-01T04:34:51;3.57;;;3.00;;
10154;SDS011;5118;48.570;7.916;2022-10-01T04:37:19;4.73;;;3.10;;
10154;SDS011;5118;48.570;7.916;2022-10-01T04:39:48;7.40;;;2.77;;
10154;SDS011;5118;48.570;7.916;2022-10-01T04:42:17;4.47;;;3.20;;
10154;SDS011;5118;48.570;7.916;2022-10-01T04:44:46;4.40;;;3.03;;
10154;SDS011;5118;48.570;7.916;2022-10-01T04:47:15;5.80;;;3.60;;
10154;SDS011;5118;48.570;7.916;2022-10-01T04:49:44;3.50;;;3.20;;
10154;SDS011;5118;48.570;7.916;2022-10-01T04:52:12;3.87;;;3.47;;
10154;SDS011;5118;48.570;7.916;2022-10-01T04:54:40;3.77;;;3.33;;
10154;SDS011;5118;48.570;7.916;2022-10-01T04:57:09;5.00;;;4.50;;
10154;SDS011;5118;48.570;7.916;2022-10-01T04:59:37;4.73;;;4.07;;
10154;SDS011;5118;48.570;7.916;2022-10-01T05:02:07;4.60;;;3.63;;
10154;SDS011;5118;48.570;7.916;2022-10-01T05:04:35;4.30;;;3.90;;
10154;SDS011;5118;48.570;7.916;2022-10-01T05:07:04;3.60;;;3.30;;
10154;SDS011;5118;48.570;7.916;2022-10-01T05:09:33;3.47;;;3.17;;
10154;SDS011;5118;48.570;7.916;2022-10-01T05:12:01;5.20;;;3.60;;
10154;SDS011;5118;48.570;7.916;2022-10-01T05:14:30;3.90;;;3.50;;
10154;SDS011;5118;48.570;7.916;2022-10-01T05:16:59;6.67;;;3.50;;
10154;SDS011;5118;48.570;7.916;2022-10-01T05:19:29;3.93;;;3.63;;
10154;SDS011;5118;48.570;7.916;2022-10-01T05:21:57;5.03;;;3.53;;
10154;SDS011;5118;48.570;7.916;2022-10-01T05:24:26;5.13;;;3.40;;
10154;SDS011;5118;48.570;7.916;2022-10-01T05:26:55;4.00;;;3.60;;
10154;SDS011;5118;48.570;7.916;2022-10-01T05:29:24;6.23;;;3.70;;
10154;SDS011;5118;48.570;7.916;2022-10-01T05:31:52;5.57;;;4.10;;
10154;SDS011;5118;48.570;7.916;2022-10-01T05:34:21;4.50;;;3.57;;
10154;SDS011;5118;48.570;7.916;2022-10-01T05:36:50;4.20;;;3.90;;
10154;SDS011;5118;48.570;7.916;2022-10-01T05:39:19;5.00;;;3.90;;
10154;SDS011;5118;48.570;7.916;2022-10-01T05:41:47;6.50;;;4.10;;
10154;SDS011;5118;48.570;7.916;2022-10-01T05:44:16;5.17;;;3.77;;
10154;SDS011;5118;48.570;7.916;2022-10-01T05:46:44;4.20;;;3.80;;
10154;SDS011;5118;48.570;7.916;2022-10-01T05:49:13;5.73;;;3.60;;
10154;SDS011;5118;48.570;7.916;2022-10-01T05:51:43;4.40;;;4.00;;
10154;SDS011;5118;48.570;7.916;2022-10-01T05:54:13;4.87;;;4.33;;
10154;SDS011;5118;48.570;7.916;2022-10-01T05:56:45;4.07;;;3.60;;
10154;SDS011;5118;48.570;7.916;2022-10-01T05:59:13;5.83;;;4.07;;
10154;SDS011;5118;48.570;7.916;2022-10-01T06:01:42;4.60;;;4.20;;
10154;SDS011;5118;48.570;7.916;2022-10-01T06:04:10;4.37;;;3.60;;
10154;SDS011;5118;48.570;7.916;2022-10-01T06:06:39;4.10;;;3.40;;
10154;SDS011;5118;48.570;7.916;2022-10-01T06:09:07;4.10;;;3.70;;
10154;SDS011;5118;48.570;7.916;2022-10-01T06:11:37;4.50;;;3.40;;
10154;SDS011;5118;48.570;7.916;2022-10-01T06:14:06;3.60;;;3.30;;
10154;SDS011;5118;48.570;7.916;2022-10-01T06:16:35;5.20;;;3.87;;
10154;SDS011;5118;48.570;7.916;2022-10-01T06:19:03;4.10;;;3.50;;
10154;SDS011;5118;48.570;7.916;2022-10-01T06:21:31;3.60;;;3.30;;
10154;SDS011;5118;48.570;7.916;2022-10-01T06:24:01;3.30;;;3.00;;
10154;SDS011;5118;48.570;7.916;2022-10-01T06:26:30;3.80;;;3.20;;
10154;SDS011;5118;48.570;7.916;2022-10-01T06:28:59;3.20;;;2.90;;
10154;SDS011;5118;48.570;7.916;2022-10-01T06:31:29;3.03;;;2.43;;
10154;SDS011;5118;48.570;7.916;2022-10-01T06:33:58;3.17;;;2.70;;
10154;SDS011;5118;48.570;7.916;2022-10-01T06:36:27;4.03;;;2.70;;
10154;SDS011;5118;48.570;7.916;2022-10-01T06:38:56;3.03;;;2.70;;
10154;SDS011;5118;48.570;7.916;2022-10-01T06:41:24;3.53;;;2.70;;
10154;SDS011;5118;48.570;7.916;2022-10-01T06:43:53;2.97;;;2.40;;
10154;SDS011;5118;48.570;7.916;2022-10-01T06:46:23;3.10;;;2.60;;
10154;SDS011;5118;48.570;7.916;2022-10-01T06:48:51;2.80;;;2.60;;
10154;SDS011;5118;48.570;7.916;2022-10-01T06:51:20;2.77;;;2.57;;
10154;SDS011;5118;48.570;7.916;2022-10-01T06:54:08;3.30;;;2.57;;
10154;SDS011;5118;48.570;7.916;2022-10-01T06:56:37;2.70;;;2.50;;
10154;SDS011;5118;48.570;7.916;2022-10-01T06:59:05;3.07;;;2.63;;
10154;SDS011;5118;48.570;7.916;2022-10-01T07:01:35;3.07;;;2.77;;
10154;SDS011;5118;48.570;7.916;2022-10-01T07:04:04;3.03;;;2.73;;
10154;SDS011;5118;48.570;7.916;2022-10-01T07:06:33;2.73;;;2.53;;
10154;SDS011;5118;48.570;7.916;2022-10-01T07:09:01;3.87;;;2.90;;
10154;SDS011;5118;48.570;7.916;2022-10-01T07:11:30;3.70;;;2.50;;
10154;SDS011;5118;48.570;7.916;2022-10-01T07:13:59;3.77;;;3.20;;
10154;SDS011;5118;48.570;7.916;2022-10-01T07:16:27;3.27;;;2.97;;
10154;SDS011;5118;48.570;7.916;2022-10-01T07:18:57;5.30;;;3.43;;
10154;SDS011;5118;48.570;7.916;2022-10-01T07:21:26;5.03;;;2.93;;
10154;SDS011;5118;48.570;7.916;2022-10-01T07:23:54;3.40;;;3.10;;
10154;SDS011;5118;48.570;7.916;2022-10-01T07:26:22;3.50;;;3.20;;
10154;SDS011;5118;48.570;7.916;2022-10-01T07:28:50;3.97;;;3.23;;
10154;SDS011;5118;48.570;7.916;2022-10-01T07:31:20;3.37;;;2.97;;
10154;SDS011;5118;48.570;7.916;2022-10-01T07:33:54;3.70;;;3.30;;
10154;SDS011;5118;48.570;7.916;2022-10-01T07:36:24;3.40;;;3.10;;
10154;SDS011;5118;48.570;7.916;2022-10-01T07:38:52;4.80;;;3.17;;
10154;SDS011;5118;48.570;7.916;2022-10-01T07:41:21;3.93;;;2.70;;
10154;SDS011;5118;48.570;7.916;2022-10-01T07:43:49;5.53;;;3.17;;
10154;SDS011;5118;48.570;7.916;2022-10-01T07:46:18;3.50;;;3.20;;
10154;SDS011;5118;48.570;7.916;2022-10-01T07:48:47;4.80;;;3.20;;
10154;SDS011;5118;48.570;7.916;2022-10-01T07:51:16;5.27;;;2.80;;
10154;SDS011;5118;48.570;7.916;2022-10-01T07:53:45;3.63;;;3.33;;
10154;SDS011;5118;48.570;7.916;2022-10-01T07:56:13;4.73;;;3.10;;
10154;SDS011;5118;48.570;7.916;2022-10-01T07:58:41;3.20;;;2.90;;
10154;SDS011;5118;48.570;7.916;2022-10-01T08:01:10;4.30;;;2.63;;
10154;SDS011;5118;48.570;7.916;2022-10-01T08:03:38;4.17;;;2.90;;
10154;SDS011;5118;48.570;7.916;2022-10-01T08:06:09;3.20;;;2.90;;
10154;SDS011;5118;48.570;7.916;2022-10-01T08:08:40;3.00;;;2.70;;
10154;SDS011;5118;48.570;7.916;2022-10-01T08:11:09;3.23;;;2.70;;
10154;SDS011;5118;48.570;7.916;2022-10-01T08:13:39;3.50;;;2.77;;
10154;SDS011;5118;48.570;7.916;2022-10-01T08:16:08;2.63;;;2.43;;
10154;SDS011;5118;48.570;7.916;2022-10-01T08:18:37;3.23;;;2.40;;
10154;SDS011;5118;48.570;7.916;2022-10-01T08:21:07;5.10;;;2.97;;
10154;SDS011;5118;48.570;7.916;2022-10-01T08:23:35;5.33;;;3.90;;
10154;SDS011;5118;48.570;7.916;2022-10-01T08:26:06;2.97;;;2.77;;
10154;SDS011;5118;48.570;7.916;2022-10-01T08:28:35;2.87;;;2.57;;
10154;SDS011;5118;48.570;7.916;2022-10-01T08:31:05;4.43;;;2.23;;
10154;SDS011;5118;48.570;7.916;2022-10-01T08:33:34;6.33;;;3.70;;
10154;SDS011;5118;48.570;7.916;2022-10-01T08:36:04;7.73;;;3.50;;
10154;SDS011;5118;48.570;7.916;2022-10-01T08:38:34;5.90;;;3.00;;
10154;SDS011;5118;48.570;7.916;2022-10-01T08:41:08;3.13;;;2.90;;
10154;SDS011;5118;48.570;7.916;2022-10-01T08:43:50;2.70;;;2.50;;
10154;SDS011;5118;48.570;7.916;2022-10-01T08:46:20;3.60;;;3.30;;
10154;SDS011;5118;48.570;7.916;2022-10-01T08:48:53;3.63;;;3.33;;
10154;SDS011;5118;48.570;7.916;2022-10-01T08:51:28;3.93;;;2.80;;
10154;SDS011;5118;48.570;7.916;2022-10-01T08:54:06;4.23;;;2.40;;
10154;SDS011;5118;48.570;7.916;2022-10-01T08:56:45;3.93;;;2.83;;
10154;SDS011;5118;48.570;7.916;2022-10-01T08:59:22;4.00;;;3.60;;
10154;SDS011;5118;48.570;7.916;2022-10-01T09:02:17;4.90;;;4.40;;
10154;SDS011;5118;48.570;7.916;2022-10-01T09:04:49;5.00;;;4.47;;
10154;SDS011;5118;48.570;7.916;2022-10-01T09:07:32;3.20;;;3.00;;
10154;SDS011;5118;48.570;7.916;2022-10-01T09:10:20;3.90;;;3.10;;
10154;SDS011;5118;48.570;7.916;2022-10-01T09:13:02;4.47;;;3.53;;
10154;SDS011;5118;48.570;7.916;2022-10-01T09:15:46;3.20;;;3.00;;
10154;SDS011;5118;48.570;7.916;2022-10-01T09:18:25;3.60;;;3.30;;
10154;SDS011;5118;48.570;7.916;2022-10-01T09:21:01;4.73;;;3.23;;
10154;SDS011;5118;48.570;7.916;2022-10-01T09:23:35;3.90;;;3.50;;
10154;SDS011;5118;48.570;7.916;2022-10-01T09:26:11;3.70;;;3.40;;
10154;SDS011;5118;48.570;7.916;2022-10-01T09:28:42;4.10;;;3.70;;
10154;SDS011;5118;48.570;7.916;2022-10-01T09:31:15;3.40;;;3.10;;
10154;SDS011;5118;48.570;7.916;2022-10-01T09:33:49;3.43;;;3.13;;
10154;SDS011;5118;48.570;7.916;2022-10-01T09:36:24;3.97;;;3.07;;
10154;SDS011;5118;48.570;7.916;2022-10-01T09:39:00;3.00;;;2.70;;
10154;SDS011;5118;48.570;7.916;2022-10-01T09:41:39;2.63;;;2.43;;
10154;SDS011;5118;48.570;7.916;2022-10-01T09:44:09;2.70;;;2.50;;
10154;SDS011;5118;48.570;7.916;2022-10-01T09:46:44;2.90;;;2.60;;
10154;SDS011;5118;48.570;7.916;2022-10-01T09:49:24;3.20;;;2.90;;
10154;SDS011;5118;48.570;7.916;2022-10-01T09:51:57;3.30;;;2.73;;
10154;SDS011;5118;48.570;7.916;2022-10-01T09:54:31;3.17;;;2.73;;
10154;SDS011;5118;48.570;7.916;2022-10-01T09:57:04;3.07;;;2.70;;
10154;SDS011;5118;48.570;7.916;2022-10-01T09:59:39;2.80;;;2.07;;
10154;SDS011;5118;48.570;7.916;2022-10-01T10:02:14;2.30;;;2.07;;
10154;SDS011;5118;48.570;7.916;2022-10-01T10:04:57;3.13;;;2.43;;
10154;SDS011;5118;48.570;7.916;2022-10-01T10:07:26;2.67;;;2.47;;
10154;SDS011;5118;48.570;7.916;2022-10-01T10:10:06;3.80;;;2.47;;
10154;SDS011;5118;48.570;7.916;2022-10-01T10:12:36;2.53;;;2.33;;
10154;SDS011;5118;48.570;7.916;2022-10-01T10:15:12;2.57;;;2.37;;
10154;SDS011;5118;48.570;7.916;2022-10-01T10:17:44;2.10;;;2.00;;
10154;SDS011;5118;48.570;7.916;2022-10-01T10:20:20;2.30;;;2.10;;
10154;SDS011;5118;48.570;7.916;2022-10-01T10:23:04;2.20;;;1.97;;
10154;SDS011;5118;48.570;7.916;2022-10-01T10:25:34;2.17;;;2.00;;
10154;SDS011;5118;48.570;7.916;2022-10-01T10:28:03;2.60;;;1.97;;
10154;SDS011;5118;48.570;7.916;2022-10-01T10:30:34;2.63;;;2.00;;
10154;SDS011;5118;48.570;7.916;2022-10-01T10:33:04;2.10;;;1.70;;
10154;SDS011;5118;48.570;7.916;2022-10-01T10:35:33;1.90;;;1.80;;
10154;SDS011;5118;48.570;7.916;2022-10-01T10:38:02;3.70;;;1.90;;
10154;SDS011;5118;48.570;7.916;2022-10-01T10:40:31;2.63;;;1.90;;
10154;SDS011;5118;48.570;7.916;2022-10-01T10:43:11;3.00;;;1.90;;
10154;SDS011;5118;48.570;7.916;2022-10-01T10:45:46;2.10;;;2.00;;
10154;SDS011;5118;48.570;7.916;2022-10-01T10:48:22;2.17;;;1.70;;
10154;SDS011;5118;48.570;7.916;2022-10-01T10:50:57;1.70;;;1.60;;
10154;SDS011;5118;48.570;7.916;2022-10-01T10:53:28;2.07;;;1.70;;
10154;SDS011;5118;48.570;7.916;2022-10-01T10:56:06;1.87;;;1.70;;
10154;SDS011;5118;48.570;7.916;2022-10-01T10:58:46;1.93;;;1.70;;
10154;SDS011;5118;48.570;7.916;2022-10-01T11:01:17;1.73;;;1.60;;
10154;SDS011;5118;48.570;7.916;2022-10-01T11:03:51;1.80;;;1.40;;
10154;SDS011;5118;48.570;7.916;2022-10-01T11:06:21;1.67;;;1.57;;
10154;SDS011;5118;48.570;7.916;2022-10-01T11:08:56;1.43;;;1.33;;
10154;SDS011;5118;48.570;7.916;2022-10-01T11:11:34;1.67;;;1.57;;
10154;SDS011;5118;48.570;7.916;2022-10-01T11:14:21;2.03;;;1.70;;
10154;SDS011;5118;48.570;7.916;2022-10-01T11:17:08;1.80;;;1.57;;
10154;SDS011;5118;48.570;7.916;2022-10-01T11:19:57;1.80;;;1.70;;
10154;SDS011;5118;48.570;7.916;2022-10-01T11:22:40;2.27;;;1.60;;
10154;SDS011;5118;48.570;7.916;2022-10-01T11:25:20;2.00;;;1.90;;
10154;SDS011;5118;48.570;7.916;2022-10-01T11:28:00;1.80;;;1.70;;
10154;SDS011;5118;48.570;7.916;2022-10-01T11:30:36;1.70;;;1.60;;
10154;SDS011;5118;48.570;7.916;2022-10-01T11:33:15;2.17;;;1.60;;
10154;SDS011;5118;48.570;7.916;2022-10-01T11:35:52;1.83;;;1.73;;
10154;SDS011;5118;48.570;7.916;2022-10-01T11:38:28;2.43;;;2.23;;
10154;SDS011;5118;48.570;7.916;2022-10-01T11:41:13;7.60;;;4.27;;
10154;SDS011;5118;48.570;7.916;2022-10-01T11:43:47;2.90;;;2.60;;
10154;SDS011;5118;48.570;7.916;2022-10-01T11:46:22;3.43;;;3.10;;
10154;SDS011;5118;48.570;7.916;2022-10-01T11:49:04;2.53;;;2.00;;
10154;SDS011;5118;48.570;7.916;2022-10-01T11:51:45;1.63;;;1.53;;
10154;SDS011;5118;48.570;7.916;2022-10-01T11:54:19;2.33;;;1.60;;
10154;SDS011;5118;48.570;7.916;2022-10-01T11:56:53;1.60;;;1.50;;
10154;SDS011;5118;48.570;7.916;2022-10-01T11:59:49;2.43;;;1.47;;
10154;SDS011;5118;48.570;7.916;2022-10-01T12:02:26;2.07;;;1.53;;
10154;SDS011;5118;48.570;7.916;2022-10-01T12:05:02;1.67;;;1.40;;
10154;SDS011;5118;48.570;7.916;2022-10-01T12:07:36;1.63;;;1.50;;
10154;SDS011;5118;48.570;7.916;2022-10-01T12:10:13;1.50;;;1.40;;
10154;SDS011;5118;48.570;7.916;2022-10-01T12:12:55;2.03;;;1.50;;
10154;SDS011;5118;48.570;7.916;2022-10-01T12:15:30;1.60;;;1.50;;
10154;SDS011;5118;48.570;7.916;2022-10-01T12:18:06;1.60;;;1.50;;
10154;SDS011;5118;48.570;7.916;2022-10-01T12:20:41;1.40;;;1.30;;
10154;SDS011;5118;48.570;7.916;2022-10-01T12:23:13;1.40;;;1.30;;
10154;SDS011;5118;48.570;7.916;2022-10-01T12:25:46;1.67;;;1.30;;
10154;SDS011;5118;48.570;7.916;2022-10-01T12:28:20;1.50;;;1.30;;
10154;SDS011;5118;48.570;7.916;2022-10-01T12:30:54;2.43;;;1.17;;
10154;SDS011;5118;48.570;7.916;2022-10-01T12:33:39;1.40;;;1.30;;
10154;SDS011;5118;48.570;7.916;2022-10-01T12:36:27;1.10;;;1.00;;
10154;SDS011;5118;48.570;7.916;2022-10-01T12:39:07;1.00;;;1.00;;
10154;SDS011;5118;48.570;7.916;2022-10-01T12:41:48;1.10;;;1.10;;
10154;SDS011;5118;48.570;7.916;2022-10-01T12:44:26;1.60;;;1.20;;
10154;SDS011;5118;48.570;7.916;2022-10-01T12:47:07;2.73;;;2.50;;
10154;SDS011;5118;48.570;7.916;2022-10-01T12:49:43;1.67;;;1.53;;
10154;SDS011;5118;48.570;7.916;2022-10-01T12:52:20;2.37;;;2.17;;
10154;SDS011;5118;48.570;7.916;2022-10-01T12:55:04;1.17;;;1.13;;
10154;SDS011;5118;48.570;7.916;2022-10-01T12:57:48;1.97;;;1.50;;
10154;SDS011;5118;48.570;7.916;2022-10-01T13:00:25;2.37;;;1.90;;
10154;SDS011;5118;48.570;7.916;2022-10-01T13:03:07;1.50;;;1.40;;
10154;SDS011;5118;48.570;7.916;2022-10-01T13:05:55;1.40;;;1.30;;
10154;SDS011;5118;48.570;7.916;2022-10-01T13:11:27;1.10;;;1.00;;
10154;SDS011;5118;48.570;7.916;2022-10-01T13:14:09;1.20;;;1.20;;
10154;SDS011;5118;48.570;7.916;2022-10-01T13:16:39;1.20;;;1.10;;
10154;SDS011;5118;48.570;7.916;2022-10-01T13:19:16;1.00;;;1.00;;
10154;SDS011;5118;48.570;7.916;2022-10-01T13:21:53;1.13;;;1.00;;
10154;SDS011;5118;48.570;7.916;2022-10-01T13:24:29;0.90;;;0.90;;
10154;SDS011;5118;48.570;7.916;2022-10-01T13:27:05;3.17;;;0.90;;
10154;SDS011;5118;48.570;7.916;2022-10-01T13:29:44;1.00;;;0.90;;
10154;SDS011;5118;48.570;7.916;2022-10-01T13:32:23;0.93;;;0.93;;
10154;SDS011;5118;48.570;7.916;2022-10-01T13:34:54;0.90;;;0.80;;
10154;SDS011;5118;48.570;7.916;2022-10-01T13:37:31;0.70;;;0.70;;
10154;SDS011;5118;48.570;7.916;2022-10-01T13:40:03;1.20;;;1.10;;
10154;SDS011;5118;48.570;7.916;2022-10-01T13:42:47;0.80;;;0.80;;
10154;SDS011;5118;48.570;7.916;2022-10-01T13:45:20;0.90;;;0.87;;
10154;SDS011;5118;48.570;7.916;2022-10-01T13:48:03;0.93;;;0.90;;
10154;SDS011;5118;48.570;7.916;2022-10-01T13:50:54;0.90;;;0.90;;
10154;SDS011;5118;48.570;7.916;2022-10-01T13:53:25;1.77;;;1.33;;
10154;SDS011;5118;48.570;7.916;2022-10-01T13:55:57;1.20;;;1.10;;
10154;SDS011;5118;48.570;7.916;2022-10-01T13:58:31;1.20;;;1.10;;
10154;SDS011;5118;48.570;7.916;2022-10-01T14:01:05;1.07;;;0.97;;
10154;SDS011;5118;48.570;7.916;2022-10-01T14:03:55;1.20;;;1.10;;
10154;SDS011;5118;48.570;7.916;2022-10-01T14:06:31;0.80;;;0.80;;
10154;SDS011;5118;48.570;7.916;2022-10-01T14:09:11;1.90;;;1.57;;
10154;SDS011;5118;48.570;7.916;2022-10-01T14:11:43;1.50;;;1.40;;
10154;SDS011;5118;48.570;7.916;2022-10-01T14:14:33;2.00;;;1.80;;
10154;SDS011;5118;48.570;7.916;2022-10-01T14:17:21;1.50;;;1.40;;
10154;SDS011;5118;48.570;7.916;2022-10-01T14:19:53;1.40;;;1.30;;
10154;SDS011;5118;48.570;7.916;2022-10-01T14:22:27;1.20;;;1.20;;
10154;SDS011;5118;48.570;7.916;2022-10-01T14:28:06;1.43;;;1.33;;
10154;SDS011;5118;48.570;7.916;2022-10-01T14:31:00;1.60;;;1.00;;
10154;SDS011;5118;48.570;7.916;2022-10-01T14:33:38;3.17;;;1.20;;
10154;SDS011;5118;48.570;7.916;2022-10-01T14:36:21;1.53;;;0.90;;
10154;SDS011;5118;48.570;7.916;2022-10-01T14:39:02;1.27;;;1.00;;
10154;SDS011;5118;48.570;7.916;2022-10-01T14:41:33;1.30;;;1.20;;
10154;SDS011;5118;48.570;7.916;2022-10-01T14:44:13;1.17;;;1.10;;
10154;SDS011;5118;48.570;7.916;2022-10-01T14:46:53;1.50;;;0.97;;
10154;SDS011;5118;48.570;7.916;2022-10-01T14:49:24;1.23;;;1.13;;
10154;SDS011;5118;48.570;7.916;2022-10-01T14:51:56;1.67;;;1.20;;
10154;SDS011;5118;48.570;7.916;2022-10-01T14:54:27;1.30;;;1.20;;
10154;SDS011;5118;48.570;7.916;2022-10-01T14:56:56;1.30;;;1.10;;
10154;SDS011;5118;48.570;7.916;2022-10-01T14:59:28;1.00;;;1.00;;
10154;SDS011;5118;48.570;7.916;2022-10-01T15:02:01;1.43;;;1.30;;
10154;SDS011;5118;48.570;7.916;2022-10-01T15:04:44;1.57;;;1.47;;
10154;SDS011;5118;48.570;7.916;2022-10-01T15:07:13;9.60;;;7.60;;
10154;SDS011;5118;48.570;7.916;2022-10-01T15:09:42;5.30;;;4.00;;
10154;SDS011;5118;48.570;7.916;2022-10-01T15:12:11;9.93;;;6.80;;
10154;SDS011;5118;48.570;7.916;2022-10-01T15:14:42;25.97;;;14.77;;
10154;SDS011;5118;48.570;7.916;2022-10-01T15:17:15;14.73;;;8.63;;
10154;SDS011;5118;48.570;7.916;2022-10-01T15:19:47;5.17;;;3.33;;
10154;SDS011;5118;48.570;7.916;2022-10-01T15:22:18;2.10;;;1.70;;
10154;SDS011;5118;48.570;7.916;2022-10-01T15:24:50;1.53;;;1.43;;
10154;SDS011;5118;48.570;7.916;2022-10-01T15:27:22;2.20;;;1.23;;
10154;SDS011;5118;48.570;7.916;2022-10-01T15:29:54;1.63;;;1.25;;
10154;SDS011;5118;48.570;7.916;2022-10-01T15:32:24;2.03;;;1.83;;
10154;SDS011;5118;48.570;7.916;2022-10-01T15:34:55;3.00;;;2.80;;
10154;SDS011;5118;48.570;7.916;2022-10-01T15:37:26;5.50;;;5.00;;
10154;SDS011;5118;48.570;7.916;2022-10-01T15:39:57;3.90;;;3.43;;
10154;SDS011;5118;48.570;7.916;2022-10-01T15:42:28;3.23;;;2.20;;